Protection Island, Washington
Current Conditions -  °F | °C
As of 3:56 PM on Sunday 23 Nov 2014 (Local Time) from KNUW Reporting Station
Scattered Clouds Scattered Clouds  
Wind Chill: 53°   Ceiling: Unl
Heat Index: 53°   Visibility: 10mi
Dew Point: 43°   Wind: 18mph
Humidity: 69%   Direction: 250°WSW
Pressure: 30.18"   Gusts: NA
Location:  48.026°N, 122.859°W
Report Text: KNUW 232356Z 25016KT 10SM FEW030 SCT090 12/06 A3018 RMK AO2 SLP222 60001 T01170061 10133 20106 51019 $
Loading
Personal Weather Stations






























Interactive Weather Map New forecast layout! Learn more

10-Day Weather Forecast

Advertisements
Track Severe Weather on mobile